Flight Track Log - Related Links

Times and Time Zones

All times are in EDT time to prevent confusion due to time zone crossing. See the CCA1950 flight status page for this flight to view local times or setup timezone preferences in your user account.

Time Position Orientation Groundspeed Altitude Reporting Facility
EDT Latitude Longitude Course Direction KTS MPH feet Rate Location/Type
Sun 08:51:00 AM 30.6188 104.3517 83° East  Level Estimated
Sun 08:52:00 AM 30.6319 104.4867 84° East  Level Estimated
Sun 08:53:00 AM 30.6449 104.6217 84° East  Level Estimated
Sun 08:54:00 AM 30.6578 104.7567 84° East  Level Estimated
Sun 08:55:00 AM 30.6705 104.8918 84° East  Level Estimated
Sun 08:56:00 AM 30.6831 105.0269 84° East  Level Estimated
Sun 08:57:00 AM 30.6955 105.1620 84° East  Level Estimated
Sun 08:58:00 AM 30.7078 105.2972 84° East  Level Estimated
Sun 08:59:00 AM 30.7200 105.4324 84° East  Level Estimated
Sun 09:00:00 AM 30.7320 105.5677 84° East  Level Estimated
Sun 09:01:00 AM 30.7439 105.7029 84° East  Level Estimated
Sun 09:02:00 AM 30.7556 105.8382 84° East  Level Estimated
Sun 09:03:00 AM 30.7672 105.9736 84° East  Level Estimated
Sun 09:04:00 AM 30.7787 106.1089 84° East  Level Estimated
Sun 09:05:00 AM 30.7900 106.2443 84° East  Level Estimated
Sun 09:06:00 AM 30.8012 106.3798 84° East  Level Estimated
Sun 09:07:00 AM 30.8122 106.5153 85° East  Level Estimated
Sun 09:08:00 AM 30.8231 106.6508 85° East  Level Estimated
Sun 09:09:00 AM 30.8339 106.7863 85° East  Level Estimated
Sun 09:10:00 AM 30.8445 106.9219 85° East  Level Estimated
Sun 09:11:00 AM 30.8550 107.0574 85° East  Level Estimated
Sun 09:12:00 AM 30.8653 107.1931 85° East  Level Estimated
Sun 09:13:00 AM 30.8755 107.3287 85° East  Level Estimated
Sun 09:14:00 AM 30.8856 107.4644 85° East  Level Estimated
Sun 09:15:00 AM 30.8955 107.6001 85° East  Level Estimated
Sun 09:16:00 AM 30.9053 107.7358 85° East  Level Estimated
Sun 09:17:00 AM 30.9149 107.8716 85° East  Level Estimated
Sun 09:18:00 AM 30.9244 108.0074 85° East  Level Estimated
Sun 09:19:00 AM 30.9337 108.1432 85° East  Level Estimated
Sun 09:20:00 AM 30.9429 108.2790 85° East  Level Estimated
Sun 09:21:00 AM 30.9520 108.4149 86° East  Level Estimated
Sun 09:22:00 AM 30.9609 108.5508 86° East  Level Estimated
Sun 09:23:00 AM 30.9697 108.6867 86° East  Level Estimated
Sun 09:24:00 AM 30.9783 108.8226 86° East  Level Estimated
Sun 09:25:00 AM 30.9868 108.9586 86° East  Level Estimated
Sun 09:26:00 AM 30.9951 109.0946 86° East  Level Estimated
Sun 09:27:00 AM 31.0033 109.2306 86° East  Level Estimated
Sun 09:28:00 AM 31.0114 109.3667 86° East  Level Estimated
Sun 09:29:00 AM 31.0193 109.5027 86° East  Level Estimated
Sun 09:30:00 AM 31.0271 109.6388 86° East  Level Estimated
Sun 09:31:00 AM 31.0347 109.7749 86° East  Level Estimated
Sun 09:32:00 AM 31.0422 109.9110 86° East  Level Estimated
Sun 09:33:00 AM 31.0496 110.0472 86° East  Level Estimated
Sun 09:34:00 AM 31.0568 110.1833 86° East  Level Estimated
Sun 09:35:00 AM 31.0639 110.3195 87° East  Level Estimated
Sun 09:36:00 AM 31.0708 110.4557 87° East  Level Estimated
Sun 09:37:00 AM 31.0776 110.5920 87° East  Level Estimated
Sun 09:38:00 AM 31.0842 110.7282 87° East  Level Estimated
Sun 09:39:00 AM 31.0907 110.8645 87° East  Level Estimated
Sun 09:40:00 AM 31.0970 111.0008 87° East  Level Estimated
Sun 09:41:00 AM 31.1032 111.1371 87° East  Level Estimated
Sun 09:42:00 AM 31.1093 111.2734 87° East  Level Estimated
Sun 09:43:00 AM 31.1152 111.4097 87° East  Level Estimated
Sun 09:44:00 AM 31.1210 111.5461 87° East  Level Estimated
Sun 09:45:00 AM 31.1266 111.6824 87° East  Level Estimated
Sun 09:46:00 AM 31.1321 111.8188 87° East  Level Estimated
Sun 09:47:00 AM 31.1374 111.9552 87° East  Level Estimated
Sun 09:48:00 AM 31.1426 112.0917 87° East  Level Estimated
Sun 09:49:00 AM 31.1477 112.2281 87° East  Level Estimated
Sun 09:50:00 AM 31.1526 112.3645 88° East  Level Estimated
Sun 09:51:00 AM 31.1574 112.5010 88° East  Level Estimated
Sun 09:52:00 AM 31.1620 112.6375 88° East  Level Estimated
Sun 09:53:00 AM 31.1665 112.7740 88° East  Level Estimated
Sun 09:54:00 AM 31.1708 112.9105 88° East  Level Estimated
Sun 09:55:00 AM 31.1750 113.0470 88° East  Level Estimated
Sun 09:56:00 AM 31.1790 113.1835 88° East  Level Estimated
Sun 09:57:00 AM 31.1829 113.3200 88° East  Level Estimated
Sun 09:58:00 AM 31.1867 113.4566 88° East  Level Estimated
Sun 09:59:00 AM 31.1903 113.5931 88° East  Level Estimated
Sun 10:00:00 AM 31.1938 113.7297 88° East  Level Estimated
Sun 10:01:00 AM 31.1971 113.8663 88° East  Level Estimated
Sun 10:02:00 AM 31.2003 114.0029 88° East  Level Estimated
Sun 10:03:00 AM 31.2033 114.1395 88° East  Level Estimated
Sun 10:04:00 AM 31.2062 114.2761 89° East  Level Estimated
Sun 10:05:00 AM 31.2090 114.4127 89° East  Level Estimated
Sun 10:06:00 AM 31.2116 114.5493 89° East  Level Estimated
Sun 10:07:00 AM 31.2140 114.6859 89° East  Level Estimated
Sun 10:08:00 AM 31.2164 114.8225 89° East  Level Estimated
Sun 10:09:00 AM 31.2185 114.9592 89° East  Level Estimated
Sun 10:10:00 AM 31.2206 115.0958 89° East  Level Estimated
Sun 10:11:00 AM 31.2224 115.2325 89° East  Level Estimated
Sun 10:12:00 AM 31.2242 115.3691 89° East  Level Estimated
Sun 10:13:00 AM 31.2258 115.5058 89° East  Level Estimated
Sun 10:14:00 AM 31.2272 115.6425 89° East  Level Estimated
Sun 10:15:00 AM 31.2285 115.7792 89° East  Level Estimated
Sun 10:16:00 AM 31.2297 115.9158 89° East  Level Estimated
Sun 10:17:00 AM 31.2307 116.0525 89° East  Level Estimated
Sun 10:18:00 AM 31.2316 116.1892 90° East  Level Estimated
Sun 10:19:00 AM 31.2323 116.3259 90° East  Level Estimated
Sun 10:20:00 AM 31.2329 116.4625 90° East  Level Estimated
Sun 10:21:00 AM 31.2333 116.5992 90° East  Level Estimated
Sun 10:22:00 AM 31.2336 116.7359 90° East  Level Estimated
Sun 10:23:00 AM 31.2337 116.8726 90° East  Level Estimated
Sun 10:24:00 AM 31.2337 117.0093 90° East  Level Estimated
Sun 10:25:00 AM 31.2336 117.1460 90° East  Level Estimated
Sun 10:26:00 AM 31.2333 117.2827 90° East  Level Estimated
Sun 10:27:00 AM 31.2329 117.4194 90° East  Level Estimated
Sun 10:28:00 AM 31.2323 117.5561 90° East  Level Estimated
Sun 10:29:00 AM 31.2316 117.6927 90° East  Level Estimated
Sun 10:30:00 AM 31.2307 117.8294 90° East  Level Estimated
Sun 10:31:00 AM 31.2297 117.9661 90° East  Level Estimated
Sun 10:32:00 AM 31.2286 118.1028 91° East  Level Estimated
Sun 10:33:00 AM 31.2273 118.2394 91° East  Level Estimated
Sun 10:34:00 AM 31.2258 118.3761 91° East  Level Estimated
Sun 10:35:00 AM 31.2243 118.5128 91° East  Level Estimated
Sun 10:36:00 AM 31.2225 118.6494 91° East  Level Estimated
Sun 10:37:00 AM 31.2206 118.7861 91° East  Level Estimated
Sun 10:38:00 AM 31.2186 118.9227 91° East  Level Estimated
Sun 10:39:00 AM 31.2165 119.0594 91° East  Level Estimated
Sun 10:40:00 AM 31.2141 119.1960 91° East  Level Estimated
Sun 10:41:00 AM 31.2117 119.3326 91° East  Level Estimated
Sun 10:42:00 AM 31.2091 119.4692 91° East  Level Estimated
Sun 10:43:00 AM 31.2064 119.6059 91° East  Level Estimated
Sun 10:44:00 AM 31.2035 119.7424 91° East  Level Estimated
Sun 10:45:00 AM 31.2004 119.8791 91° East  Level Estimated
Sun 10:46:00 AM 31.1973 120.0156 92° East  Level Estimated
Sun 10:47:00 AM 31.1940 120.1522 92° East  Level Estimated
Sun 10:48:00 AM 31.1905 120.2888 92° East  Level Estimated
Sun 10:49:00 AM 31.1869 120.4253 92° East  Level Estimated
Sun 10:50:00 AM 31.1831 120.5619 92° East  Level Estimated
Sun 10:51:00 AM 31.1792 120.6984 92° East  Level Estimated
Sun 10:52:00 AM 31.1752 120.8350 92° East  Level Estimated
Sun 10:53:00 AM 31.1710 120.9715 92° East  Level Estimated
Sun 10:54:00 AM 31.1667 121.1080 92° East  Level Estimated
Sun 10:55:00 AM 31.1622 121.2445 92° East  Level Estimated
Sun 10:56:00 AM 31.1576 121.3809 92° East  Level Estimated
Sun 10:56:58 AM 31.5420 120.4860 92° East 406 467 19,500  Level FlightAware ADS-B
Sun 10:57:00 AM 31.1528 121.5174 92° East  Level Estimated
Sun 10:57:58 AM 31.5050 120.6090 109° East 391 450 17,500  Level FlightAware ADS-B
Sun 10:58:00 AM 31.1479 121.6538 92° East  Level Estimated
Sun 10:58:38 AM 31.4820 120.6860 109° East 383 441 16,200  Level FlightAware ADS-B
Sun 11:01:00 AM 31.3895 120.9915 109° East  Level Estimated
Sun 11:02:00 AM 31.3502 121.1205 110° East  Level Estimated
Sun 11:03:00 AM 31.3108 121.2493 110° East  Level Estimated
Sun 11:04:00 AM 31.2713 121.3780 110° East  Level Estimated
Sun 11:05:00 AM 31.2316 121.5066 110° East  Level Estimated
Sun 11:06:00 AM 31.1918 121.6350 110° East  Level Estimated
Sun 11:07:00 AM 31.1518 121.7634 110° East  Level Estimated
Sun 11:08:00 AM 31.1428 121.7924 110° East  Level Estimated
Sun 11:09:00 AM 31.1428 121.7924 221° Southwest  Level Estimated
Sun 11:10:00 AM 31.1428 121.7924 221° Southwest  Level Estimated
Sun 11:11:00 AM 31.1428 121.7924 221° Southwest  Level Estimated
Sun 11:11:07 AM 31.3450 121.7110 221° Southwest 171 197 3,900  Level FlightAware ADS-B
Sun 11:13:00 AM 31.1428 121.7924 161° South  Level Estimated
Sun 11:13:53 AM 31.2350 121.7530 221° Southwest 157 181 1,700  Level FlightAware ADS-B
Sun 11:14:00 AM 31.1428 121.7924 221° Southwest  Level Estimated
Sun 11:14:03 AM 31.2290 121.7550 164° South 157 181 1,600  Level FlightAware ADS-B
Sun 11:14:43 AM 31.2040 121.7650 161° South 157 181 1,400 -300 Descending FlightAware ADS-B
Sun 11:17:00 AM 31.1428 121.7924 159° South  Level Estimated

Login

Don't have an account? Register now (free) for customized features, flight alerts, and more!